Vancourt, Texas
Current Conditions -  °F | °C
As of 11:59 PM on Friday 19 Dec 2014 (Local Time) from KSJT Reporting Station
Scattered Clouds Scattered Clouds  
Wind Chill: 42°   Ceiling: Unl
Heat Index: 44°   Visibility: 10mi
Dew Point: 39°   Wind: 5mph
Humidity: 82%   Direction: 10°N
Pressure: 30.18"   Gusts: NA
Location:  31.34°N, 100.18°W
Report Text: KSJT 200559Z AUTO 01004KT 10SM SCT019 07/04 A3018 RMK AO2 T00670039
Loading
Personal Weather Stations






























Interactive Weather Map New forecast layout! Learn more

10-Day Weather Forecast

Advertisements
Track Severe Weather on mobile